Time;durP1;ratioP1;P1;durP2;ratioP2;P2;SDS_P1;SDS_P2;PMS_P1;PMS_P2;Temp;Humidity;BMP_temperature;BMP_pressure;BME280_temperature;BME280_humidity;BME280_pressure;Samples;Min_cycle;Max_cycle;Signal;HPM_P1;HPM_P2
2023/02/09 00:01:01;;;;;;;;;;;;;;;16.45;33.45;103134.50;4969721;28;1154;-53
2023/02/09 00:03:27;;;;;;;;;;;;;;;18.12;30.46;103123.41;4957247;28;1168;-56
2023/02/09 00:05:52;;;;;;;;;;;;;;;17.78;31.03;103132.97;4957183;28;1974;-53
2023/02/09 00:08:18;;;;;;;;;;;;;;;16.79;32.83;103140.75;4957343;28;1102;-53
2023/02/09 00:10:43;;;;;;;;;;;;;;;17.52;31.55;103156.06;4957748;28;1132;-57
2023/02/09 00:13:24;;;;;;;;;;;;;;;16.62;32.74;103152.22;4967213;28;936;-49
2023/02/09 00:15:53;;;;;;;;;;;;;;;16.75;32.88;103156.84;4945831;29;1066;-51
2023/02/09 00:18:19;;;;;;;;;;;;;;;17.19;31.98;103157.09;4960911;28;1169;-55
2023/02/09 00:20:44;;;;;;;;;;;;;;;16.42;33.21;103155.88;4944010;29;1264;-55
2023/02/09 00:23:10;;;;;;;;;;;;;;;17.56;31.54;103160.06;4961647;28;2414;-57
2023/02/09 00:25:36;;;;;;;;;;;;;;;16.81;32.41;103153.22;4961104;28;1891;-54
2023/02/09 00:28:02;;;;;;;;;;;;;;;18.23;30.19;103156.75;4960868;28;1137;-58
2023/02/09 00:30:28;;;;;;;;;;;;;;;18.28;29.98;103146.75;4960567;28;1074;-51
2023/02/09 00:32:54;;;;;;;;;;;;;;;17.10;32.17;103157.34;4943826;28;1212;-53
2023/02/09 00:35:20;;;;;;;;;;;;;;;16.33;33.45;103154.41;4962319;28;999;-56
2023/02/09 00:37:45;;;;;;;;;;;;;;;17.29;31.85;103154.69;4966140;28;1149;-54
2023/02/09 00:40:11;;;;;;;;;;;;;;;16.46;33.22;103167.25;4960730;28;1149;-55
2023/02/09 00:42:37;;;;;;;;;;;;;;;18.40;29.81;103160.63;4975633;28;1245;-56
2023/02/09 00:45:02;;;;;;;;;;;;;;;17.05;32.01;103154.41;4960502;28;1968;-54
2023/02/09 00:47:28;;;;;;;;;;;;;;;16.57;32.91;103152.03;4976924;28;1136;-58
2023/02/09 00:49:53;;;;;;;;;;;;;;;17.84;31.09;103158.75;4943312;29;1220;-51
2023/02/09 00:52:19;;;;;;;;;;;;;;;16.71;32.52;103153.66;4960289;28;1042;-55
2023/02/09 00:54:44;;;;;;;;;;;;;;;16.30;33.33;103165.81;4967741;28;2722;-55
2023/02/09 00:57:10;;;;;;;;;;;;;;;17.56;30.98;103149.06;4959984;28;1014;-51
2023/02/09 00:59:39;;;;;;;;;;;;;;;16.52;33.02;103151.81;4963233;28;1126;-52
2023/02/09 01:02:04;;;;;;;;;;;;;;;18.06;30.34;103165.63;4965314;28;1131;-55
2023/02/09 01:04:30;;;;;;;;;;;;;;;17.23;31.58;103159.16;4959787;28;1899;-57
2023/02/09 01:06:56;;;;;;;;;;;;;;;16.82;32.69;103162.31;4959882;28;1137;-52
2023/02/09 01:09:21;;;;;;;;;;;;;;;18.25;29.98;103149.97;4960328;28;1010;-55
2023/02/09 01:11:46;;;;;;;;;;;;;;;16.88;32.30;103153.19;4961536;28;1046;-56
2023/02/09 01:14:12;;;;;;;;;;;;;;;16.38;33.26;103154.63;4959972;28;1063;-53
2023/02/09 01:16:37;;;;;;;;;;;;;;;17.00;32.13;103154.22;4959926;28;1003;-54
2023/02/09 01:19:03;;;;;;;;;;;;;;;16.29;33.46;103152.31;4959784;28;1038;-59
2023/02/09 01:21:28;;;;;;;;;;;;;;;17.95;30.79;103163.59;4959837;28;1030;-55
2023/02/09 01:23:54;;;;;;;;;;;;;;;16.65;32.69;103160.03;4962301;28;2655;-57
2023/02/09 01:26:20;;;;;;;;;;;;;;;17.68;30.94;103155.50;4964916;28;1974;-54
2023/02/09 01:28:49;;;;;;;;;;;;;;;17.85;30.43;103158.56;4959553;28;1069;-54
2023/02/09 01:31:16;;;;;;;;;;;;;;;16.60;32.84;103165.31;4959781;28;1106;-56
2023/02/09 01:33:42;;;;;;;;;;;;;;;16.25;33.51;103160.94;4959753;28;1132;-54
2023/02/09 01:36:08;;;;;;;;;;;;;;;16.95;32.27;103167.78;4962277;28;1022;-54
2023/02/09 01:38:33;;;;;;;;;;;;;;;16.76;32.31;103170.34;4942872;29;1618;-55
2023/02/09 01:41:00;;;;;;;;;;;;;;;17.43;31.41;103169.22;4959078;28;1057;-57
2023/02/09 01:43:25;;;;;;;;;;;;;;;18.41;29.72;103155.94;4959389;28;1027;-53
2023/02/09 01:45:53;;;;;;;;;;;;;;;16.84;32.41;103165.66;4959145;28;1906;-56
2023/02/09 01:48:20;;;;;;;;;;;;;;;17.70;30.89;103164.38;4964110;28;1102;-51
2023/02/09 01:50:46;;;;;;;;;;;;;;;17.30;31.57;103169.31;4963809;28;1106;-52
2023/02/09 01:53:11;;;;;;;;;;;;;;;16.53;33.04;103170.81;4961167;28;2490;-56
2023/02/09 01:55:39;;;;;;;;;;;;;;;16.56;33.10;103169.56;4964397;28;1156;-57
2023/02/09 01:58:14;;;;;;;;;;;;;;;17.08;31.78;103178.72;4926231;29;1675;-56
2023/02/09 02:00:39;;;;;;;;;;;;;;;16.76;32.76;103175.84;4963526;28;1010;-54
2023/02/09 02:03:06;;;;;;;;;;;;;;;18.44;29.87;103174.81;4959297;28;1102;-51
2023/02/09 02:05:35;;;;;;;;;;;;;;;16.93;32.32;103173.50;4958954;28;1915;-53
2023/02/09 02:08:13;;;;;;;;;;;;;;;16.48;33.24;103173.41;4942140;29;1589;-51
2023/02/09 02:10:39;;;;;;;;;;;;;;;16.94;32.27;103171.56;4925788;29;1251;-53
2023/02/09 02:13:05;;;;;;;;;;;;;;;16.44;33.10;103174.88;4951693;28;1350;-56
2023/02/09 02:15:44;;;;;;;;;;;;;;;18.37;30.13;103169.34;4959591;28;1093;-55
2023/02/09 02:18:10;;;;;;;;;;;;;;;16.78;32.56;103172.88;4925674;28;1279;-56
2023/02/09 02:20:54;;;;;;;;;;;;;;;16.29;33.57;103177.84;4958779;28;1147;-52
2023/02/09 02:23:22;;;;;;;;;;;;;;;16.97;32.34;103187.66;4959231;28;2471;-50
2023/02/09 02:26:08;;;;;;;;;;;;;;;16.42;33.09;103188.81;4945678;29;1960;-55
2023/02/09 02:28:41;;;;;;;;;;;;;;;17.72;30.93;103192.50;4966494;28;1535;-53
2023/02/09 02:31:25;;;;;;;;;;;;;;;17.71;30.89;103189.97;4958871;28;1026;-55
2023/02/09 02:33:57;;;;;;;;;;;;;;;16.50;32.93;103186.91;4968317;28;1056;-56
2023/02/09 02:36:31;;;;;;;;;;;;;;;17.77;30.93;103187.19;4961048;28;1057;-52
2023/02/09 02:39:16;;;;;;;;;;;;;;;16.58;32.92;103194.94;4966076;28;1137;-55
2023/02/09 02:44:34;;;;;;;;;;;;;;;17.23;31.62;103186.66;4956571;28;1911;-56
2023/02/09 02:47:00;;;;;;;;;;;;;;;16.60;32.88;103190.88;4941107;29;1181;-54
2023/02/09 02:49:31;;;;;;;;;;;;;;;17.81;30.96;103197.75;4964508;28;1109;-53
2023/02/09 02:51:58;;;;;;;;;;;;;;;16.73;32.86;103197.41;4958478;28;1094;-49
2023/02/09 02:54:27;;;;;;;;;;;;;;;16.97;32.77;103206.03;4948238;29;2401;-56
2023/02/09 02:56:57;;;;;;;;;;;;;;;17.40;31.67;103199.91;4941231;29;1118;-54
2023/02/09 02:59:29;;;;;;;;;;;;;;;16.44;33.24;103199.59;4940797;29;1527;-56
2023/02/09 03:01:56;;;;;;;;;;;;;;;18.44;29.98;103200.41;4941613;29;911;-49
2023/02/09 03:04:21;;;;;;;;;;;;;;;16.87;32.47;103203.72;4958021;28;1981;-53
2023/02/09 03:06:47;;;;;;;;;;;;;;;17.52;31.58;103203.66;4940820;29;1165;-55
2023/02/09 03:09:12;;;;;;;;;;;;;;;17.75;31.07;103202.25;4957993;28;1049;-54
2023/02/09 03:11:39;;;;;;;;;;;;;;;16.67;33.10;103203.78;4958316;28;1026;-54
2023/02/09 03:14:18;;;;;;;;;;;;;;;16.30;33.56;103198.75;4948654;29;933;-55
2023/02/09 03:16:53;;;;;;;;;;;;;;;17.37;31.89;103194.88;4940603;28;1030;-51
2023/02/09 03:19:24;;;;;;;;;;;;;;;17.31;31.96;103201.25;4957826;28;1110;-52
2023/02/09 03:21:51;;;;;;;;;;;;;;;18.78;29.37;103202.81;4941023;29;1045;-53
2023/02/09 03:24:19;;;;;;;;;;;;;;;17.46;31.51;103188.06;4940837;29;2507;-51
2023/02/09 03:26:55;;;;;;;;;;;;;;;17.00;32.57;103197.34;4958984;28;852;-56
2023/02/09 03:29:20;;;;;;;;;;;;;;;18.13;30.60;103196.69;4940715;29;1098;-53
2023/02/09 03:31:46;;;;;;;;;;;;;;;16.82;32.65;103198.88;4970420;28;956;-53
2023/02/09 03:34:11;;;;;;;;;;;;;;;17.47;31.93;103208.97;4940604;29;1090;-57
2023/02/09 03:36:38;;;;;;;;;;;;;;;17.02;32.30;103201.56;4971505;28;1184;-56
2023/02/09 03:39:03;;;;;;;;;;;;;;;16.47;33.72;103196.41;4965028;28;1081;-57
2023/02/09 03:41:29;;;;;;;;;;;;;;;18.01;30.63;103192.97;4957786;28;1129;-56
2023/02/09 03:46:38;;;;;;;;;;;;;;;18.09;30.92;103200.97;4959273;28;1098;-56
2023/02/09 03:49:04;;;;;;;;;;;;;;;17.21;32.08;103190.72;4963611;28;1129;-52
2023/02/09 03:51:29;;;;;;;;;;;;;;;16.56;33.55;103197.88;4961460;28;1030;-51
2023/02/09 03:53:55;;;;;;;;;;;;;;;17.36;32.33;103191.28;4968666;28;2294;-52
2023/02/09 03:56:23;;;;;;;;;;;;;;;16.49;33.63;103191.53;4961860;28;1085;-57
2023/02/09 03:58:49;;;;;;;;;;;;;;;17.56;31.77;103195.81;4961659;28;1137;-51
2023/02/09 04:01:14;;;;;;;;;;;;;;;17.66;31.53;103203.59;4965455;28;1059;-55
2023/02/09 04:03:40;;;;;;;;;;;;;;;16.69;33.00;103201.63;4967015;28;1148;-54
2023/02/09 04:06:05;;;;;;;;;;;;;;;18.16;30.79;103205.56;4961311;28;1910;-53
2023/02/09 04:08:32;;;;;;;;;;;;;;;17.01;32.73;103199.91;4961466;28;1014;-57
2023/02/09 04:10:57;;;;;;;;;;;;;;;16.39;33.94;103197.47;4961636;28;998;-53
2023/02/09 04:13:23;;;;;;;;;;;;;;;17.40;32.36;103197.16;4965043;28;1038;-54
2023/02/09 04:15:48;;;;;;;;;;;;;;;16.53;33.57;103197.47;4961305;28;1137;-55
2023/02/09 04:18:14;;;;;;;;;;;;;;;17.02;32.97;103196.06;4960709;28;1058;-55
2023/02/09 04:20:39;;;;;;;;;;;;;;;17.60;31.34;103208.06;4961037;28;1196;-56
2023/02/09 04:23:05;;;;;;;;;;;;;;;16.55;33.36;103198.06;4972979;28;2496;-56
2023/02/09 04:25:30;;;;;;;;;;;;;;;16.03;34.41;103206.16;4966100;28;1907;-52
2023/02/09 04:27:56;;;;;;;;;;;;;;;17.42;31.61;103212.38;4966034;28;1089;-53
2023/02/09 04:30:21;;;;;;;;;;;;;;;16.30;33.92;103201.50;4960939;28;1112;-50
2023/02/09 04:32:46;;;;;;;;;;;;;;;17.12;32.67;103216.75;4960838;28;1006;-51
2023/02/09 04:35:12;;;;;;;;;;;;;;;16.91;32.69;103205.00;4960588;28;1125;-51
2023/02/09 04:37:37;;;;;;;;;;;;;;;16.81;32.87;103204.59;4965106;28;1081;-56
2023/02/09 04:40:03;;;;;;;;;;;;;;;18.52;30.08;103209.47;4960642;28;1148;-56
2023/02/09 04:42:30;;;;;;;;;;;;;;;16.82;32.83;103201.63;4960444;28;1247;-56
2023/02/09 04:44:56;;;;;;;;;;;;;;;16.34;33.82;103200.03;4960197;28;1907;-56
2023/02/09 04:47:21;;;;;;;;;;;;;;;16.97;32.89;103204.16;4960529;28;1079;-52
2023/02/09 04:49:47;;;;;;;;;;;;;;;16.60;33.29;103201.88;4966840;28;1219;-54
2023/02/09 04:52:12;;;;;;;;;;;;;;;17.05;32.67;103212.13;4961492;28;1044;-51
2023/02/09 04:54:37;;;;;;;;;;;;;;;17.86;31.00;103201.53;4967423;28;2474;-57
2023/02/09 04:59:47;;;;;;;;;;;;;;;18.47;30.18;103223.94;4960828;28;1041;-56
2023/02/09 05:02:12;;;;;;;;;;;;;;;17.22;32.13;103211.63;4962487;28;1099;-52
2023/02/09 05:04:38;;;;;;;;;;;;;;;16.52;33.50;103207.63;4959761;28;1903;-54
2023/02/09 05:07:03;;;;;;;;;;;;;;;16.06;34.12;103209.31;4960213;28;1073;-53
2023/02/09 05:09:29;;;;;;;;;;;;;;;17.56;31.64;103220.59;4960331;28;995;-53
2023/02/09 05:11:54;;;;;;;;;;;;;;;16.49;33.34;103226.41;4960001;28;1076;-50
2023/02/09 05:14:19;;;;;;;;;;;;;;;17.32;32.12;103228.53;4960443;28;868;-52
2023/02/09 05:16:45;;;;;;;;;;;;;;;17.44;31.91;103221.25;4959477;28;1161;-51
2023/02/09 05:19:10;;;;;;;;;;;;;;;16.43;33.39;103226.19;4959259;28;1208;-49
2023/02/09 05:21:36;;;;;;;;;;;;;;;18.08;30.80;103224.03;4959600;28;1088;-53
2023/02/09 05:24:01;;;;;;;;;;;;;;;16.93;32.71;103231.22;4964348;28;2625;-52
2023/02/09 05:26:26;;;;;;;;;;;;;;;17.41;31.94;103221.69;4964860;28;1914;-48
2023/02/09 05:28:52;;;;;;;;;;;;;;;18.01;30.84;103234.28;4959787;28;1034;-48
2023/02/09 05:31:18;;;;;;;;;;;;;;;16.75;32.97;103223.59;4959950;28;1108;-47
2023/02/09 05:33:43;;;;;;;;;;;;;;;17.85;31.35;103237.53;4959671;28;1220;-54
2023/02/09 05:36:11;;;;;;;;;;;;;;;17.14;32.45;103232.00;4959592;28;1035;-54
2023/02/09 05:38:36;;;;;;;;;;;;;;;16.47;33.79;103232.13;4961514;28;975;-52
2023/02/09 05:41:05;;;;;;;;;;;;;;;16.66;33.13;103227.66;4959213;28;1037;-52
2023/02/09 05:43:30;;;;;;;;;;;;;;;16.59;33.30;103235.03;4959759;28;1172;-52
2023/02/09 05:45:56;;;;;;;;;;;;;;;16.11;34.02;103225.16;4959341;28;1914;-53
2023/02/09 05:48:21;;;;;;;;;;;;;;;17.55;31.56;103227.97;4959085;28;1014;-57
2023/02/09 05:50:47;;;;;;;;;;;;;;;16.39;33.45;103243.31;4967999;28;1093;-57
2023/02/09 05:53:14;;;;;;;;;;;;;;;17.09;32.36;103240.03;4961649;28;2278;-53
2023/02/09 05:55:39;;;;;;;;;;;;;;;16.96;32.80;103240.94;4964051;28;1116;-58
2023/02/09 05:58:05;;;;;;;;;;;;;;;16.86;32.93;103246.00;4959329;28;1018;-56
2023/02/09 06:00:30;;;;;;;;;;;;;;;18.37;30.44;103240.09;4958424;28;1467;-52
2023/02/09 06:02:56;;;;;;;;;;;;;;;16.86;32.94;103235.84;4962126;28;898;-52
2023/02/09 06:05:21;;;;;;;;;;;;;;;16.20;34.06;103234.00;4959108;28;1918;-54
2023/02/09 06:07:47;;;;;;;;;;;;;;;17.41;32.06;103226.38;4958550;28;990;-53
2023/02/09 06:10:12;;;;;;;;;;;;;;;16.36;33.89;103225.34;4958430;28;1038;-51
2023/02/09 06:12:38;;;;;;;;;;;;;;;17.65;31.77;103227.50;4959242;28;1046;-51
2023/02/09 06:15:03;;;;;;;;;;;;;;;16.97;32.62;103225.28;4969167;28;1220;-57
2023/02/09 06:17:29;;;;;;;;;;;;;;;17.19;32.39;103231.31;4958752;28;1473;-58
2023/02/09 06:19:54;;;;;;;;;;;;;;;17.16;32.39;103212.53;4971585;28;1229;-51
2023/02/09 06:22:20;;;;;;;;;;;;;;;16.56;33.40;103219.00;4958293;28;1163;-54
2023/02/09 06:24:45;;;;;;;;;;;;;;;16.15;33.80;103218.19;4971944;28;2515;-54
2023/02/09 06:27:11;;;;;;;;;;;;;;;15.93;34.56;103220.28;4961778;28;1034;-56
2023/02/09 06:29:37;;;;;;;;;;;;;;;15.71;34.57;103216.84;4958398;28;1114;-55
2023/02/09 06:32:02;;;;;;;;;;;;;;;15.50;35.20;103228.81;4958851;28;1153;-57
2023/02/09 06:34:28;;;;;;;;;;;;;;;15.31;35.43;103225.81;4958456;28;1069;-55
2023/02/09 06:36:53;;;;;;;;;;;;;;;15.93;34.64;103230.44;4957775;28;1023;-53
2023/02/09 06:39:18;;;;;;;;;;;;;;;17.27;31.92;103217.34;4968700;28;1089;-54
2023/02/09 06:41:44;;;;;;;;;;;;;;;16.41;33.51;103225.56;4958231;28;1077;-52
2023/02/09 06:44:10;;;;;;;;;;;;;;;15.78;34.71;103216.84;4958658;28;1173;-54
2023/02/09 06:46:36;;;;;;;;;;;;;;;15.48;35.22;103209.81;4969962;28;1017;-55
2023/02/09 06:49:01;;;;;;;;;;;;;;;16.56;33.40;103210.75;4958505;28;1162;-56
2023/02/09 06:51:27;;;;;;;;;;;;;;;17.22;32.17;103208.88;4963050;28;1439;-51
2023/02/09 06:53:52;;;;;;;;;;;;;;;16.16;33.71;103202.56;4965335;28;2428;-56
2023/02/09 06:56:19;;;;;;;;;;;;;;;15.70;34.62;103198.72;4958319;28;1101;-54
2023/02/09 06:58:44;;;;;;;;;;;;;;;15.35;35.26;103196.94;4958244;28;994;-51
2023/02/09 07:01:10;;;;;;;;;;;;;;;16.48;33.46;103200.00;4957944;28;1172;-52
2023/02/09 07:03:36;;;;;;;;;;;;;;;17.49;31.82;103206.00;4957677;28;1053;-55
2023/02/09 07:06:05;;;;;;;;;;;;;;;16.56;33.31;103191.53;4958003;28;1985;-56
2023/02/09 07:08:30;;;;;;;;;;;;;;;15.94;34.37;103190.97;4957343;28;1050;-53
2023/02/09 07:10:56;;;;;;;;;;;;;;;15.55;35.10;103193.41;4957917;28;1399;-50
2023/02/09 07:13:21;;;;;;;;;;;;;;;15.74;34.93;103184.34;4958260;28;1193;-50
2023/02/09 07:15:53;;;;;;;;;;;;;;;17.19;32.12;103181.84;4946587;29;958;-49
2023/02/09 07:18:18;;;;;;;;;;;;;;;16.65;33.11;103176.53;4957760;28;1169;-55
2023/02/09 07:20:44;;;;;;;;;;;;;;;15.92;34.44;103177.44;4957453;28;1455;-52
2023/02/09 07:23:09;;;;;;;;;;;;;;;15.55;35.22;103174.19;4957709;28;2476;-54
2023/02/09 07:25:35;;;;;;;;;;;;;;;15.93;34.38;103181.88;4957629;28;1906;-51
2023/02/09 07:28:00;;;;;;;;;;;;;;;17.30;31.92;103181.13;4957564;28;897;-52
2023/02/09 07:30:25;;;;;;;;;;;;;;;16.71;32.97;103172.91;4957302;28;1145;-49
2023/02/09 07:32:51;;;;;;;;;;;;;;;15.93;34.38;103164.56;4957626;28;1134;-54
2023/02/09 07:35:16;;;;;;;;;;;;;;;15.60;34.85;103170.81;4957208;28;1161;-51
2023/02/09 07:37:42;;;;;;;;;;;;;;;16.85;32.56;103178.38;4957679;28;1205;-55
2023/02/09 07:40:07;;;;;;;;;;;;;;;17.25;32.02;103178.19;4964147;28;900;-52
2023/02/09 07:42:33;;;;;;;;;;;;;;;16.23;33.46;103193.28;4957711;28;1109;-55
2023/02/09 07:45:00;;;;;;;;;;;;;;;15.71;34.48;103201.25;4972754;28;1967;-56
2023/02/09 07:47:26;;;;;;;;;;;;;;;15.78;34.64;103212.22;4957140;28;994;-57
2023/02/09 07:49:51;;;;;;;;;;;;;;;17.24;32.00;103218.59;4957613;28;1041;-55
2023/02/09 07:52:17;;;;;;;;;;;;;;;16.66;32.86;103222.16;4957601;28;898;-53
2023/02/09 07:54:42;;;;;;;;;;;;;;;15.95;34.24;103217.31;4964598;28;2547;-56
2023/02/09 07:57:08;;;;;;;;;;;;;;;15.57;35.04;103219.56;4957732;28;1045;-56
2023/02/09 07:59:34;;;;;;;;;;;;;;;16.95;32.70;103217.25;4957605;28;1030;-56
2023/02/09 08:02:00;;;;;;;;;;;;;;;17.55;31.56;103213.38;4957535;28;1196;-55
2023/02/09 08:04:25;;;;;;;;;;;;;;;16.39;33.55;103218.59;4948488;29;1907;-55
2023/02/09 08:06:52;;;;;;;;;;;;;;;15.92;34.38;103207.59;4957769;28;1034;-57
2023/02/09 08:09:17;;;;;;;;;;;;;;;15.62;34.87;103213.44;4941019;29;1096;-54
2023/02/09 08:11:45;;;;;;;;;;;;;;;16.90;32.65;103206.03;4957534;28;1138;-54
2023/02/09 08:14:16;;;;;;;;;;;;;;;17.21;32.09;103207.22;4957253;28;1212;-57
2023/02/09 08:16:41;;;;;;;;;;;;;;;16.20;33.64;103210.16;4942535;28;960;-53
2023/02/09 08:19:09;;;;;;;;;;;;;;;15.74;34.87;103200.81;4956845;29;1165;-56
2023/02/09 08:21:35;;;;;;;;;;;;;;;16.33;33.82;103208.47;4957529;28;1022;-55
2023/02/09 08:24:01;;;;;;;;;;;;;;;17.50;31.85;103219.56;4940174;29;2374;-54
2023/02/09 08:26:26;;;;;;;;;;;;;;;16.40;33.56;103215.63;4939814;29;1899;-56
2023/02/09 08:28:51;;;;;;;;;;;;;;;15.89;34.32;103208.03;4956656;28;1092;-53
2023/02/09 08:31:17;;;;;;;;;;;;;;;15.89;34.30;103205.28;4957466;28;1050;-56
2023/02/09 08:33:43;;;;;;;;;;;;;;;17.29;32.01;103215.19;4960370;28;1149;-58
2023/02/09 08:36:09;;;;;;;;;;;;;;;16.60;32.88;103209.28;4960068;28;1042;-52
2023/02/09 08:38:34;;;;;;;;;;;;;;;15.91;34.18;103212.25;4960304;28;1109;-57
2023/02/09 08:41:06;;;;;;;;;;;;;;;15.59;34.96;103211.13;4972014;28;1192;-53
2023/02/09 08:43:32;;;;;;;;;;;;;;;17.03;32.37;103214.25;4960206;28;1165;-54
2023/02/09 08:46:01;;;;;;;;;;;;;;;17.01;32.36;103219.16;4960170;28;1973;-55
2023/02/09 08:48:28;;;;;;;;;;;;;;;16.06;33.91;103213.94;4960123;28;1022;-58
2023/02/09 08:50:54;;;;;;;;;;;;;;;15.72;34.60;103221.28;4960406;28;1110;-55
2023/02/09 08:53:19;;;;;;;;;;;;;;;16.03;34.10;103215.25;4967753;28;2327;-54
2023/02/09 08:55:45;;;;;;;;;;;;;;;17.39;31.63;103222.97;4964458;28;1098;-55
2023/02/09 08:58:11;;;;;;;;;;;;;;;16.85;32.42;103225.06;4959349;28;1245;-49
2023/02/09 09:00:37;;;;;;;;;;;;;;;16.04;34.17;103230.63;4960714;28;1066;-51
2023/02/09 09:03:03;;;;;;;;;;;;;;;15.69;34.56;103218.97;4960446;28;1193;-57
2023/02/09 09:05:29;;;;;;;;;;;;;;;15.81;34.31;103217.31;4972122;28;1938;-56
2023/02/09 09:07:54;;;;;;;;;;;;;;;17.28;32.04;103214.38;4960155;28;1274;-52
2023/02/09 09:10:19;;;;;;;;;;;;;;;16.91;32.35;103205.00;4960178;28;1003;-55
2023/02/09 09:12:45;;;;;;;;;;;;;;;16.13;33.71;103216.69;4959696;28;1101;-55
2023/02/09 09:15:10;;;;;;;;;;;;;;;15.70;34.55;103210.50;4960558;28;1043;-57
2023/02/09 09:17:36;;;;;;;;;;;;;;;16.57;32.93;103209.72;4965291;28;1021;-54
2023/02/09 09:20:01;;;;;;;;;;;;;;;17.57;31.29;103212.09;4959975;28;1126;-56
2023/02/09 09:22:27;;;;;;;;;;;;;;;16.43;33.25;103204.22;4959919;28;1121;-59
2023/02/09 09:24:54;;;;;;;;;;;;;;;15.95;34.01;103195.38;4968186;28;2720;-55
2023/02/09 09:27:19;;;;;;;;;;;;;;;15.65;34.72;103202.06;4959896;28;1085;-52
2023/02/09 09:29:45;;;;;;;;;;;;;;;17.14;32.03;103204.50;4959771;28;1153;-51
2023/02/09 09:32:12;;;;;;;;;;;;;;;16.82;32.34;103196.13;4960065;28;1082;-51
2023/02/09 09:34:38;;;;;;;;;;;;;;;16.04;33.90;103189.47;4959830;28;1073;-51
2023/02/09 09:37:04;;;;;;;;;;;;;;;15.67;34.33;103182.66;4959441;28;1101;-57
2023/02/09 09:39:29;;;;;;;;;;;;;;;16.04;33.97;103181.22;4961558;28;1054;-52
2023/02/09 09:41:56;;;;;;;;;;;;;;;17.34;31.45;103187.06;4965625;28;1053;-56
2023/02/09 09:44:26;;;;;;;;;;;;;;;16.36;33.17;103175.94;4941651;29;1902;-53
2023/02/09 09:46:51;;;;;;;;;;;;;;;15.87;33.80;103188.22;4972505;28;1177;-45
2023/02/09 09:49:22;;;;;;;;;;;;;;;15.59;34.60;103180.97;4959156;28;1137;-54
2023/02/09 09:51:48;;;;;;;;;;;;;;;17.10;31.86;103179.34;4942433;28;1162;-56
2023/02/09 09:54:20;;;;;;;;;;;;;;;17.36;31.35;103174.78;4967079;28;2641;-55
2023/02/09 09:56:46;;;;;;;;;;;;;;;16.28;33.38;103169.81;4942033;29;1051;-52
2023/02/09 09:59:15;;;;;;;;;;;;;;;15.84;34.04;103161.19;4959573;28;1140;-57
2023/02/09 10:01:40;;;;;;;;;;;;;;;15.49;34.52;103159.41;4942181;29;1042;-57
2023/02/09 10:04:08;;;;;;;;;;;;;;;17.02;32.03;103165.00;4959465;28;1121;-54
2023/02/09 10:06:34;;;;;;;;;;;;;;;17.41;31.40;103155.69;4942066;29;1914;-61
2023/02/09 10:08:59;;;;;;;;;;;;;;;16.30;32.92;103149.34;4959168;28;1164;-53
2023/02/09 10:11:29;;;;;;;;;;;;;;;15.84;34.06;103145.56;4959081;28;1034;-55
2023/02/09 10:13:55;;;;;;;;;;;;;;;15.63;34.36;103160.28;4941643;29;1071;-56
2023/02/09 10:16:25;;;;;;;;;;;;;;;17.16;31.82;103158.38;4958480;28;1121;-54
2023/02/09 10:18:51;;;;;;;;;;;;;;;17.13;31.65;103155.22;4958518;28;1264;-55
2023/02/09 10:21:17;;;;;;;;;;;;;;;16.17;33.28;103144.72;4958800;28;1017;-54
2023/02/09 10:23:49;;;;;;;;;;;;;;;15.78;33.94;103145.53;4959082;28;2550;-56
2023/02/09 10:26:20;;;;;;;;;;;;;;;16.85;32.34;103146.22;4941012;29;1982;-55
2023/02/09 10:28:47;;;;;;;;;;;;;;;17.57;30.86;103148.81;4962813;28;1159;-55
2023/02/09 10:31:18;;;;;;;;;;;;;;;16.45;32.79;103151.00;4958704;28;1034;-54
2023/02/09 10:33:44;;;;;;;;;;;;;;;15.89;33.95;103153.16;4958186;28;1081;-53
2023/02/09 10:36:32;;;;;;;;;;;;;;;15.99;33.42;103153.59;4958277;29;1296;-54
2023/02/09 10:39:10;;;;;;;;;;;;;;;17.55;30.93;103158.38;4952385;29;1278;-57
2023/02/09 10:41:36;;;;;;;;;;;;;;;16.55;32.55;103157.75;4959181;28;1248;-55
2023/02/09 10:44:04;;;;;;;;;;;;;;;15.96;33.78;103159.47;4958100;29;1296;-54
2023/02/09 10:46:30;;;;;;;;;;;;;;;15.60;34.25;103159.84;4941348;29;1919;-52
2023/02/09 10:48:56;;;;;;;;;;;;;;;15.69;34.07;103161.34;4958173;29;1237;-58
2023/02/09 10:51:28;;;;;;;;;;;;;;;17.20;31.70;103164.28;4958243;28;1316;-57
2023/02/09 10:54:00;;;;;;;;;;;;;;;17.27;31.48;103159.59;4968384;28;2329;-56
2023/02/09 10:56:42;;;;;;;;;;;;;;;16.22;33.20;103157.81;4957738;28;1134;-52
2023/02/09 10:59:20;;;;;;;;;;;;;;;15.73;34.05;103157.13;4958545;28;1142;-51
2023/02/09 11:02:07;;;;;;;;;;;;;;;15.72;34.01;103158.19;4957633;29;1209;-51
2023/02/09 11:04:36;;;;;;;;;;;;;;;17.37;31.36;103159.09;4942586;28;1914;-56
2023/02/09 11:07:08;;;;;;;;;;;;;;;16.75;32.18;103163.16;4957838;29;1253;-52
2023/02/09 11:09:34;;;;;;;;;;;;;;;16.04;33.48;103178.47;4941048;29;1258;-55
2023/02/09 11:12:00;;;;;;;;;;;;;;;15.66;34.07;103164.53;4940531;29;1374;-49
2023/02/09 11:14:25;;;;;;;;;;;;;;;16.14;33.42;103161.59;4957671;28;1222;-51
2023/02/09 11:17:03;;;;;;;;;;;;;;;17.42;31.15;103164.81;4964320;28;1015;-53
2023/02/09 11:19:47;;;;;;;;;;;;;;;16.25;33.38;103163.69;4961918;28;1161;-56
2023/02/09 11:22:21;;;;;;;;;;;;;;;15.75;34.17;103160.50;4957711;28;1073;-56
2023/02/09 11:25:25;;;;;;;;;;;;;;;16.32;33.36;103160.94;4957371;28;2435;-51
2023/02/09 11:28:01;;;;;;;;;;;;;;;17.03;32.04;103159.28;4917469;29;1247;-54
2023/02/09 11:30:35;;;;;;;;;;;;;;;16.05;33.72;103151.91;4901162;29;1044;-51
2023/02/09 11:33:00;;;;;;;;;;;;;;;15.68;34.27;103163.25;4924493;29;1140;-53
2023/02/09 11:35:26;;;;;;;;;;;;;;;16.46;33.03;103164.50;4957150;28;1034;-52
2023/02/09 11:37:51;;;;;;;;;;;;;;;17.58;30.93;103156.00;4940475;29;1137;-50
2023/02/09 11:40:35;;;;;;;;;;;;;;;16.65;32.46;103157.28;4957532;28;1117;-51
2023/02/09 11:43:09;;;;;;;;;;;;;;;15.95;33.93;103146.84;4978755;28;1076;-53
2023/02/09 11:45:45;;;;;;;;;;;;;;;15.58;34.63;103154.56;4958109;28;1947;-53
2023/02/09 11:48:11;;;;;;;;;;;;;;;15.73;34.56;103159.88;4957560;28;1097;-54
2023/02/09 11:50:46;;;;;;;;;;;;;;;17.22;32.01;103152.00;4957618;28;1239;-53
2023/02/09 11:53:27;;;;;;;;;;;;;;;16.91;32.47;103145.41;4944796;28;2451;-52
2023/02/09 11:55:59;;;;;;;;;;;;;;;16.04;33.97;103144.72;4957120;28;1022;-52
2023/02/09 11:58:30;;;;;;;;;;;;;;;15.66;34.78;103137.94;4940594;29;1054;-54
2023/02/09 12:01:06;;;;;;;;;;;;;;;15.62;34.72;103144.88;4940168;29;1105;-53
2023/02/09 12:03:32;;;;;;;;;;;;;;;17.21;31.83;103130.22;4957606;28;1138;-54
2023/02/09 12:05:57;;;;;;;;;;;;;;;16.96;32.22;103141.97;4963361;28;1915;-55
2023/02/09 12:08:29;;;;;;;;;;;;;;;16.08;33.76;103130.34;4943447;29;1177;-52
2023/02/09 12:11:06;;;;;;;;;;;;;;;15.71;34.32;103131.81;4949670;28;1157;-50
2023/02/09 12:13:32;;;;;;;;;;;;;;;17.19;32.22;103124.94;4960902;28;1149;-51
2023/02/09 12:15:59;;;;;;;;;;;;;;;16.72;32.59;103129.81;4960700;28;998;-50
2023/02/09 12:18:26;;;;;;;;;;;;;;;16.01;34.01;103115.78;4956263;28;1134;-52
2023/02/09 12:20:52;;;;;;;;;;;;;;;15.64;34.55;103111.75;4960660;28;1105;-53
2023/02/09 12:23:18;;;;;;;;;;;;;;;16.98;32.62;103122.53;4964323;28;2357;-52
2023/02/09 12:25:49;;;;;;;;;;;;;;;17.26;31.69;103124.91;4969634;28;1906;-54
2023/02/09 12:28:17;;;;;;;;;;;;;;;16.26;33.55;103131.59;4961013;28;1816;-50
2023/02/09 12:30:43;;;;;;;;;;;;;;;15.77;34.61;103127.38;4965557;28;863;-52
2023/02/09 12:33:15;;;;;;;;;;;;;;;15.63;34.81;103130.13;4960562;28;1130;-54
2023/02/09 12:35:40;;;;;;;;;;;;;;;17.26;32.13;103134.00;4959756;29;1217;-51
2023/02/09 12:38:14;;;;;;;;;;;;;;;16.76;32.60;103126.41;4943309;29;1049;-49
2023/02/09 12:40:39;;;;;;;;;;;;;;;15.99;34.26;103120.66;4946968;28;1047;-51
2023/02/09 12:43:24;;;;;;;;;;;;;;;15.62;34.80;103131.16;4942876;29;1320;-57
2023/02/09 12:46:09;;;;;;;;;;;;;;;16.35;33.74;103133.06;4960188;29;1987;-55
2023/02/09 12:48:44;;;;;;;;;;;;;;;17.58;31.48;103130.41;4960005;29;1209;-56
2023/02/09 12:51:30;;;;;;;;;;;;;;;16.89;32.38;103138.44;4942997;29;1234;-46
2023/02/09 12:53:55;;;;;;;;;;;;;;;16.04;33.92;103131.84;4968326;28;2286;-50
2023/02/09 12:56:20;;;;;;;;;;;;;;;15.75;34.54;103138.56;4959960;28;1158;-54
2023/02/09 12:58:49;;;;;;;;;;;;;;;16.07;34.26;103136.06;4959836;28;1081;-53